Time;durP1;ratioP1;P1;durP2;ratioP2;P2;SDS_P1;SDS_P2;PMS_P1;PMS_P2;Temp;Humidity;BMP_temperature;BMP_pressure;BME280_temperature;BME280_humidity;BME280_pressure;Samples;Min_cycle;Max_cycle;Signal;HPM_P1;HPM_P2
2021/09/01 00:01:58;;;;;;;8.48;4.90;;;23.40;96.80;;;;;;4866172;29;20112;-82
2021/09/01 00:04:24;;;;;;;7.78;4.43;;;23.40;96.80;;;;;;4866069;29;20100;-84
2021/09/01 00:06:49;;;;;;;7.55;4.95;;;23.40;96.80;;;;;;4850348;29;20377;-83
2021/09/01 00:09:15;;;;;;;7.25;4.75;;;23.40;96.80;;;;;;4882787;29;20072;-84
2021/09/01 00:11:41;;;;;;;9.15;4.75;;;23.40;96.80;;;;;;4865888;29;20519;-82
2021/09/01 00:14:07;;;;;;;8.80;4.93;;;23.40;96.80;;;;;;4882677;29;20038;-82
2021/09/01 00:16:33;;;;;;;7.18;4.80;;;23.40;96.80;;;;;;4882373;29;20044;-83
2021/09/01 00:19:01;;;;;;;7.93;4.80;;;23.40;96.80;;;;;;4865853;29;20482;-82
2021/09/01 00:21:27;;;;;;;8.80;5.25;;;23.40;96.80;;;;;;4882370;29;20025;-83
2021/09/01 00:23:53;;;;;;;6.97;5.13;;;23.40;96.80;;;;;;4865741;29;20057;-82
2021/09/01 00:26:19;;;;;;;6.97;4.53;;;23.40;96.90;;;;;;4882521;29;20080;-82
2021/09/01 00:28:45;;;;;;;9.70;5.25;;;23.40;96.70;;;;;;4882243;29;20040;-82
2021/09/01 00:31:11;;;;;;;9.10;5.13;;;23.40;96.70;;;;;;4882148;29;20033;-82
2021/09/01 00:33:37;;;;;;;8.93;4.68;;;23.40;96.70;;;;;;4865363;29;20399;-82
2021/09/01 00:36:03;;;;;;;8.90;5.15;;;23.40;96.90;;;;;;4850302;29;20033;-82
2021/09/01 00:38:28;;;;;;;12.80;5.45;;;23.40;96.90;;;;;;4882009;29;20033;-82
2021/09/01 00:40:55;;;;;;;9.93;4.85;;;23.40;96.70;;;;;;4882363;29;20429;-82
2021/09/01 00:43:22;;;;;;;9.00;5.20;;;23.40;96.70;;;;;;4865459;29;20108;-82
2021/09/01 00:45:48;;;;;;;10.75;5.60;;;23.40;96.70;;;;;;4881848;29;20483;-82
2021/09/01 00:48:18;;;;;;;8.15;5.28;;;23.40;96.70;;;;;;4882070;29;20033;-82
2021/09/01 00:50:52;;;;;;;10.10;5.75;;;23.40;96.70;;;;;;4881778;29;20037;-82
2021/09/01 00:53:23;;;;;;;9.32;6.20;;;23.40;96.70;;;;;;4881787;29;20075;-82
2021/09/01 00:55:49;;;;;;;10.93;5.82;;;23.50;96.70;;;;;;4881459;29;20087;-82
2021/09/01 00:58:16;;;;;;;8.63;5.80;;;23.50;96.70;;;;;;4881603;29;20029;-82
2021/09/01 01:03:27;;;;;;;9.25;5.55;;;23.50;96.70;;;;;;4867959;29;20478;-83
2021/09/01 01:05:56;;;;;;;9.25;5.25;;;23.50;96.70;;;;;;4864935;29;20045;-82
2021/09/01 01:08:21;;;;;;;9.15;5.05;;;23.50;96.60;;;;;;4880998;29;20029;-82
2021/09/01 01:10:47;;;;;;;10.98;5.88;;;23.50;96.60;;;;;;4864769;29;20120;-82
2021/09/01 01:13:15;;;;;;;9.50;5.50;;;23.50;96.60;;;;;;4864744;29;20405;-82
2021/09/01 01:15:41;;;;;;;9.32;6.68;;;23.50;96.60;;;;;;4881292;29;20108;-82
2021/09/01 01:18:10;;;;;;;8.63;5.20;;;23.50;96.60;;;;;;4849529;29;20121;-82
2021/09/01 01:20:37;;;;;;;11.48;6.40;;;23.50;96.70;;;;;;4880995;29;20096;-83
2021/09/01 01:23:04;;;;;;;9.40;4.78;;;23.40;96.60;;;;;;4864569;29;20049;-82
2021/09/01 01:25:32;;;;;;;8.23;5.47;;;23.50;96.60;;;;;;4881041;29;20037;-82
2021/09/01 01:27:57;;;;;;;9.57;5.57;;;23.50;96.70;;;;;;4881661;29;20124;-82
2021/09/01 01:30:23;;;;;;;12.35;6.00;;;23.50;96.70;;;;;;4881040;29;20064;-82
2021/09/01 01:32:50;;;;;;;10.85;6.13;;;23.50;96.70;;;;;;4880815;29;20116;-82
2021/09/01 01:35:35;;;;;;;10.07;5.88;;;23.40;96.70;;;;;;4881153;29;20040;-81
2021/09/01 01:38:06;;;;;;;9.23;5.72;;;23.50;96.90;;;;;;4880947;29;20598;-82
2021/09/01 01:40:33;;;;;;;11.02;6.05;;;23.50;96.70;;;;;;4865263;29;20086;-82
2021/09/01 01:42:58;;;;;;;9.93;5.88;;;23.50;96.70;;;;;;4880850;29;20041;-82
2021/09/01 01:45:30;;;;;;;9.23;6.05;;;23.50;96.70;;;;;;4880969;29;20044;-82
2021/09/01 01:47:56;;;;;;;9.07;5.97;;;23.50;96.70;;;;;;4864247;29;20033;-82
2021/09/01 01:50:22;;;;;;;8.82;6.00;;;23.50;96.70;;;;;;4880767;29;20052;-82
2021/09/01 01:52:47;;;;;;;9.60;5.97;;;23.50;96.70;;;;;;4880434;29;20036;-82
2021/09/01 01:55:13;;;;;;;9.75;6.05;;;23.50;96.70;;;;;;4864376;29;20030;-82
2021/09/01 01:57:38;;;;;;;10.45;6.07;;;23.50;96.70;;;;;;4880250;29;20472;-82
2021/09/01 02:00:06;;;;;;;10.65;6.10;;;23.50;96.70;;;;;;4880602;29;20157;-82
2021/09/01 02:02:32;;;;;;;10.60;7.00;;;23.50;96.70;;;;;;4864187;29;20044;-82
2021/09/01 02:04:59;;;;;;;8.88;5.72;;;23.60;96.80;;;;;;4863775;29;20076;-82
2021/09/01 02:07:25;;;;;;;8.90;6.00;;;23.60;96.80;;;;;;4863835;29;20085;-82
2021/09/01 02:09:51;;;;;;;11.18;6.72;;;23.60;96.80;;;;;;4848520;29;20040;-82
2021/09/01 02:12:17;;;;;;;8.90;6.20;;;23.60;96.80;;;;;;4880281;29;20033;-82
2021/09/01 02:14:43;;;;;;;9.70;6.68;;;23.60;96.80;;;;;;4880630;29;20054;-82
2021/09/01 02:17:09;;;;;;;9.70;6.05;;;23.60;96.90;;;;;;4863906;29;20041;-82
2021/09/01 02:19:34;;;;;;;9.32;6.35;;;23.60;96.90;;;;;;4863542;29;20045;-82
2021/09/01 02:22:00;;;;;;;9.80;6.70;;;23.60;96.90;;;;;;4847734;29;20040;-82
2021/09/01 02:24:26;;;;;;;9.02;6.38;;;23.60;96.90;;;;;;4863504;29;20061;-82
2021/09/01 02:26:51;;;;;;;11.63;6.93;;;23.60;96.90;;;;;;4863322;29;20052;-82
2021/09/01 02:29:17;;;;;;;11.80;7.30;;;23.60;96.90;;;;;;4879920;29;20037;-82
2021/09/01 02:31:42;;;;;;;10.52;7.10;;;23.50;96.90;;;;;;4880059;29;20052;-82
2021/09/01 02:34:08;;;;;;;10.40;7.47;;;23.50;97.00;;;;;;4863512;29;20483;-82
2021/09/01 02:36:34;;;;;;;11.65;7.20;;;23.50;97.00;;;;;;4863352;29;20388;-82
2021/09/01 02:38:59;;;;;;;9.68;6.68;;;23.50;97.00;;;;;;4863192;29;20052;-82
2021/09/01 02:41:25;;;;;;;8.95;6.95;;;23.50;97.00;;;;;;4879815;29;20510;-82
2021/09/01 02:43:51;;;;;;;9.75;6.68;;;23.50;97.00;;;;;;4862978;29;20037;-82
2021/09/01 02:46:17;;;;;;;10.80;6.88;;;23.50;97.00;;;;;;4879697;29;20072;-82
2021/09/01 02:48:44;;;;;;;9.45;7.10;;;23.50;97.00;;;;;;4879726;29;20032;-83
2021/09/01 02:51:10;;;;;;;11.10;7.95;;;23.50;97.00;;;;;;4879971;29;20029;-82
2021/09/01 02:53:35;;;;;;;10.57;7.45;;;23.50;97.00;;;;;;4863374;29;20037;-82
2021/09/01 02:56:01;;;;;;;11.00;7.40;;;23.50;97.00;;;;;;4879536;29;20036;-82
2021/09/01 02:58:27;;;;;;;10.55;7.80;;;23.60;97.10;;;;;;4863177;29;20111;-83
2021/09/01 03:00:52;;;;;;;10.20;7.97;;;23.60;97.10;;;;;;4879273;29;20044;-82
2021/09/01 03:03:18;;;;;;;9.70;7.63;;;23.50;97.10;;;;;;4863109;29;20531;-82
2021/09/01 03:05:43;;;;;;;9.93;7.22;;;23.60;97.10;;;;;;4862803;29;20392;-84
2021/09/01 03:08:09;;;;;;;12.32;9.38;;;23.60;97.10;;;;;;4879310;29;20041;-82
2021/09/01 03:10:35;;;;;;;8.88;7.22;;;23.60;97.10;;;;;;4879586;29;20033;-82
2021/09/01 03:13:00;;;;;;;11.82;7.70;;;23.60;97.10;;;;;;4879353;29;20188;-82
2021/09/01 03:15:27;;;;;;;11.50;8.10;;;23.60;97.10;;;;;;4862959;29;20029;-82
2021/09/01 03:17:52;;;;;;;9.52;7.63;;;23.60;97.10;;;;;;4879183;29;20033;-82
2021/09/01 03:20:18;;;;;;;10.95;8.70;;;23.60;97.10;;;;;;4879366;29;20056;-82
2021/09/01 03:22:43;;;;;;;11.45;8.13;;;23.60;97.40;;;;;;4878958;29;20480;-82
2021/09/01 03:25:10;;;;;;;9.98;8.27;;;23.60;97.10;;;;;;4879095;29;20176;-82
2021/09/01 03:27:35;;;;;;;11.35;8.07;;;23.60;97.20;;;;;;4847535;29;20040;-82
2021/09/01 03:30:01;;;;;;;12.20;8.48;;;23.60;97.20;;;;;;4862573;29;20037;-82
2021/09/01 03:32:26;;;;;;;12.32;8.73;;;23.60;97.20;;;;;;4878932;29;20388;-82
2021/09/01 03:34:52;;;;;;;10.55;7.97;;;23.60;97.20;;;;;;4878928;29;20041;-82
2021/09/01 03:37:18;;;;;;;10.50;8.35;;;23.60;97.20;;;;;;4879417;29;20044;-82
2021/09/01 03:39:43;;;;;;;12.35;9.07;;;23.60;97.20;;;;;;4879303;29;20124;-82
2021/09/01 03:42:09;;;;;;;10.30;7.85;;;23.60;97.20;;;;;;4879067;29;20437;-82
2021/09/01 03:44:34;;;;;;;12.80;8.90;;;23.60;97.20;;;;;;4879596;29;20069;-82
2021/09/01 03:47:00;;;;;;;12.63;8.65;;;23.60;97.20;;;;;;4862523;29;20041;-82
2021/09/01 03:49:26;;;;;;;10.48;8.23;;;23.60;97.20;;;;;;4879411;29;20483;-82
2021/09/01 03:51:51;;;;;;;12.07;8.20;;;23.60;97.20;;;;;;4862346;29;20476;-82
2021/09/01 03:54:18;;;;;;;13.15;8.68;;;23.60;97.20;;;;;;4879405;29;20029;-84
2021/09/01 03:56:44;;;;;;;11.82;8.60;;;23.60;97.20;;;;;;4878961;29;20491;-82
2021/09/01 03:59:09;;;;;;;11.70;7.93;;;23.60;97.10;;;;;;4862177;29;20053;-82
2021/09/01 04:01:35;;;;;;;10.75;8.57;;;23.60;97.10;;;;;;4862330;29;20033;-82
2021/09/01 04:04:02;;;;;;;10.43;7.90;;;23.60;97.10;;;;;;4878811;29;20531;-82
2021/09/01 04:06:28;;;;;;;10.65;7.70;;;23.60;97.20;;;;;;4879408;29;20503;-82
2021/09/01 04:08:54;;;;;;;11.43;8.35;;;23.60;97.20;;;;;;4878816;29;20041;-82
2021/09/01 04:11:19;;;;;;;11.68;8.63;;;23.60;97.20;;;;;;4847061;29;20040;-82
2021/09/01 04:13:45;;;;;;;11.20;8.40;;;23.60;97.20;;;;;;4846957;29;20380;-82
2021/09/01 04:16:11;;;;;;;11.75;8.30;;;23.60;97.20;;;;;;4878783;29;20369;-81
2021/09/01 04:18:36;;;;;;;12.80;8.70;;;23.60;97.20;;;;;;4878929;29;20077;-82
2021/09/01 04:21:02;;;;;;;13.23;8.38;;;23.60;97.30;;;;;;4861857;29;20041;-82
2021/09/01 04:23:28;;;;;;;11.02;7.90;;;23.50;97.20;;;;;;4878895;29;20049;-83
2021/09/01 04:25:54;;;;;;;10.80;7.88;;;23.50;97.20;;;;;;4878737;29;20109;-82
2021/09/01 04:28:20;;;;;;;10.30;7.80;;;23.60;97.30;;;;;;4862190;29;20472;-82
2021/09/01 04:30:45;;;;;;;8.88;7.25;;;23.60;97.30;;;;;;4879251;29;20512;-81
2021/09/01 04:33:11;;;;;;;11.25;8.20;;;23.60;97.30;;;;;;4878626;29;20029;-81
2021/09/01 04:35:37;;;;;;;10.95;8.15;;;23.60;97.30;;;;;;4846909;29;20040;-83
2021/09/01 04:38:03;;;;;;;11.35;7.90;;;23.50;97.30;;;;;;4861934;29;20037;-83
2021/09/01 04:40:28;;;;;;;9.73;7.43;;;23.50;97.30;;;;;;4878879;29;20048;-83
2021/09/01 04:42:54;;;;;;;9.65;7.50;;;23.50;97.20;;;;;;4846103;29;20033;-85
2021/09/01 04:45:20;;;;;;;11.68;7.15;;;23.50;97.10;;;;;;4881865;29;20029;-83
2021/09/01 04:47:45;;;;;;;10.40;7.45;;;23.50;97.10;;;;;;4882191;29;20044;-82
2021/09/01 04:50:12;;;;;;;10.02;7.88;;;23.50;97.00;;;;;;4881959;29;20044;-83
2021/09/01 04:52:38;;;;;;;10.60;7.03;;;23.50;97.20;;;;;;4882093;29;20104;-85
2021/09/01 04:55:04;;;;;;;9.15;6.60;;;23.40;97.00;;;;;;4881056;29;20432;-83
2021/09/01 04:57:30;;;;;;;8.90;6.65;;;23.40;97.00;;;;;;4865335;29;20036;-83
2021/09/01 04:59:56;;;;;;;10.85;7.15;;;23.40;97.00;;;;;;4881764;29;20396;-85
2021/09/01 05:02:21;;;;;;;9.30;6.68;;;23.40;97.00;;;;;;4881375;29;20116;-82
2021/09/01 05:04:47;;;;;;;10.27;6.78;;;23.40;97.00;;;;;;4881740;29;20040;-82
2021/09/01 05:07:13;;;;;;;7.88;6.00;;;23.40;97.00;;;;;;4881506;29;20472;-82
2021/09/01 05:09:38;;;;;;;9.32;6.28;;;23.40;96.90;;;;;;4881464;29;20041;-81
2021/09/01 05:12:04;;;;;;;10.77;6.70;;;23.40;96.90;;;;;;4881039;29;20037;-83
2021/09/01 05:14:30;;;;;;;8.05;6.20;;;23.40;96.90;;;;;;4864646;29;20033;-81
2021/09/01 05:16:56;;;;;;;9.18;6.57;;;23.40;96.90;;;;;;4863703;29;20468;-82
2021/09/01 05:19:21;;;;;;;10.30;6.57;;;23.30;97.00;;;;;;4864461;29;20101;-81
2021/09/01 05:21:52;;;;;;;7.13;5.82;;;23.40;97.10;;;;;;4881578;29;20075;-81
2021/09/01 05:24:59;;;;;;;10.32;6.15;;;23.40;97.10;;;;;;4864300;29;20052;-80
2021/09/01 05:27:28;;;;;;;9.77;6.15;;;23.40;97.20;;;;;;4864125;29;20044;-80
2021/09/01 05:29:57;;;;;;;9.30;5.93;;;23.40;97.20;;;;;;4863881;29;20051;-82
2021/09/01 05:32:28;;;;;;;9.95;5.88;;;23.40;97.20;;;;;;4881139;29;20508;-82
2021/09/01 05:34:57;;;;;;;11.90;6.65;;;23.40;97.20;;;;;;4864585;29;20424;-81
2021/09/01 05:37:23;;;;;;;15.40;7.10;;;23.40;97.20;;;;;;4880894;29;20022;-82
2021/09/01 05:39:55;;;;;;;17.42;7.90;;;23.40;97.10;;;;;;4880722;29;20041;-82
2021/09/01 05:42:23;;;;;;;17.92;8.07;;;23.40;97.10;;;;;;4880784;29;20041;-82
2021/09/01 05:44:50;;;;;;;15.63;6.93;;;23.40;97.00;;;;;;4863959;29;20057;-82
2021/09/01 05:47:17;;;;;;;17.77;7.07;;;23.50;97.00;;;;;;4880434;29;20037;-83
2021/09/01 05:49:45;;;;;;;13.73;6.70;;;23.50;96.90;;;;;;4863898;29;20476;-83
2021/09/01 05:52:12;;;;;;;13.40;7.50;;;23.50;96.90;;;;;;4880228;29;20025;-83
2021/09/01 05:54:42;;;;;;;13.77;6.40;;;23.50;96.80;;;;;;4863918;29;20119;-82
2021/09/01 05:57:13;;;;;;;14.93;7.25;;;23.50;96.70;;;;;;4880553;29;20319;-81
2021/09/01 05:59:46;;;;;;;14.90;6.88;;;23.50;96.70;;;;;;4880541;29;20132;-81
2021/09/01 06:02:19;;;;;;;17.02;7.05;;;23.50;96.70;;;;;;4880498;29;20115;-81
2021/09/01 06:04:46;;;;;;;12.30;6.28;;;23.50;96.70;;;;;;4880237;29;20472;-83
2021/09/01 06:07:17;;;;;;;15.35;7.15;;;23.50;97.00;;;;;;4863839;29;20056;-81
2021/09/01 06:09:45;;;;;;;19.58;7.47;;;23.50;96.70;;;;;;4863935;29;20045;-81
2021/09/01 06:12:21;;;;;;;16.33;7.70;;;23.50;96.70;;;;;;4880446;29;20059;-81
2021/09/01 06:14:47;;;;;;;14.43;7.05;;;23.50;96.70;;;;;;4880600;29;20033;-80
2021/09/01 06:17:13;;;;;;;15.07;7.38;;;23.60;96.70;;;;;;4879969;29;20040;-81
2021/09/01 06:19:39;;;;;;;15.50;7.07;;;23.60;96.70;;;;;;4880059;29;20425;-81
2021/09/01 06:22:06;;;;;;;14.95;7.07;;;23.60;96.70;;;;;;4880610;29;20471;-81
2021/09/01 06:24:33;;;;;;;14.15;6.32;;;23.60;96.60;;;;;;4863730;29;20057;-81
2021/09/01 06:27:00;;;;;;;15.15;6.60;;;23.60;96.60;;;;;;4880327;29;20085;-81
2021/09/01 06:29:26;;;;;;;11.20;6.80;;;23.60;96.60;;;;;;4863325;29;20040;-81
2021/09/01 06:31:52;;;;;;;12.07;5.85;;;23.60;96.60;;;;;;4880347;29;20045;-81
2021/09/01 06:34:18;;;;;;;12.80;6.38;;;23.60;96.50;;;;;;4880013;29;20041;-81
2021/09/01 06:36:44;;;;;;;12.38;5.90;;;23.60;96.80;;;;;;4880406;29;20037;-80
2021/09/01 06:39:10;;;;;;;11.18;5.13;;;23.60;96.50;;;;;;4879885;29;20036;-81
2021/09/01 06:41:36;;;;;;;13.38;5.60;;;23.60;96.50;;;;;;4879985;29;20033;-81
2021/09/01 06:44:02;;;;;;;12.27;6.05;;;23.60;96.50;;;;;;4863366;29;20029;-82
2021/09/01 06:46:28;;;;;;;9.52;5.35;;;23.60;96.60;;;;;;4863038;29;20049;-81
2021/09/01 06:48:53;;;;;;;9.57;5.47;;;23.60;96.50;;;;;;4863227;29;20115;-80
2021/09/01 06:51:19;;;;;;;11.75;5.38;;;23.60;96.50;;;;;;4863055;29;20040;-80
2021/09/01 06:53:45;;;;;;;14.02;5.72;;;23.60;96.50;;;;;;4863263;29;20029;-80
2021/09/01 06:56:10;;;;;;;11.20;4.90;;;23.60;96.50;;;;;;4879651;29;20037;-81
2021/09/01 06:58:36;;;;;;;11.77;5.25;;;23.50;96.50;;;;;;4879373;29;20037;-81
2021/09/01 07:01:03;;;;;;;9.32;4.60;;;23.50;96.60;;;;;;4863079;29;20116;-80
2021/09/01 07:03:28;;;;;;;11.05;4.72;;;23.50;96.60;;;;;;4862656;29;20036;-81
2021/09/01 07:05:54;;;;;;;12.43;4.93;;;23.40;96.60;;;;;;4862405;29;20397;-83
2021/09/01 07:08:23;;;;;;;11.00;4.97;;;23.40;96.60;;;;;;4862455;29;20033;-79
2021/09/01 07:10:50;;;;;;;6.30;4.15;;;23.30;96.70;;;;;;4862938;29;20483;-79
2021/09/01 07:13:17;;;;;;;8.65;4.55;;;23.30;96.80;;;;;;4879312;29;20043;-80
2021/09/01 07:15:44;;;;;;;8.18;3.85;;;23.20;96.90;;;;;;4879289;29;20554;-79
2021/09/01 07:18:10;;;;;;;8.00;4.07;;;23.20;97.00;;;;;;4879298;29;20037;-79
2021/09/01 07:20:37;;;;;;;9.50;3.85;;;23.20;97.20;;;;;;4879199;29;20128;-80
2021/09/01 07:23:03;;;;;;;8.23;3.83;;;23.20;97.10;;;;;;4878998;29;20053;-79
2021/09/01 07:25:32;;;;;;;8.35;4.40;;;23.10;97.10;;;;;;4879024;29;20032;-78
2021/09/01 07:27:58;;;;;;;6.63;3.75;;;23.10;97.10;;;;;;4879344;29;20072;-78
2021/09/01 07:30:23;;;;;;;6.47;3.75;;;23.10;97.20;;;;;;4879417;29;20075;-79
2021/09/01 07:32:49;;;;;;;9.90;4.32;;;23.10;97.20;;;;;;4862703;29;20197;-79
2021/09/01 07:35:14;;;;;;;6.47;3.85;;;23.10;97.40;;;;;;4878974;29;20456;-81
2021/09/01 07:37:45;;;;;;;5.82;3.50;;;23.10;97.40;;;;;;4879300;29;20037;-80
2021/09/01 07:40:12;;;;;;;6.03;3.38;;;23.10;97.50;;;;;;4879283;29;20113;-79
2021/09/01 07:42:38;;;;;;;8.05;3.97;;;23.10;97.40;;;;;;4878898;29;20037;-79
2021/09/01 07:45:05;;;;;;;6.85;3.80;;;23.10;97.40;;;;;;4879622;29;20081;-79
2021/09/01 07:47:30;;;;;;;4.80;3.00;;;23.10;97.40;;;;;;4879103;29;20029;-79
2021/09/01 07:49:56;;;;;;;9.52;3.38;;;23.10;97.40;;;;;;4879067;29;20395;-79
2021/09/01 07:52:21;;;;;;;5.90;3.42;;;23.10;97.30;;;;;;4878713;29;20097;-80
2021/09/01 07:54:47;;;;;;;5.95;3.78;;;23.10;97.30;;;;;;4879526;29;20505;-79
2021/09/01 07:57:13;;;;;;;6.32;3.00;;;23.10;97.30;;;;;;4879227;29;20104;-79
2021/09/01 07:59:38;;;;;;;5.90;3.60;;;23.00;97.30;;;;;;4878592;29;20047;-79
2021/09/01 08:02:04;;;;;;;6.07;3.47;;;23.00;97.30;;;;;;4879100;29;20044;-80
2021/09/01 08:04:29;;;;;;;4.80;3.30;;;23.00;97.20;;;;;;4878650;29;20029;-79
2021/09/01 08:06:55;;;;;;;5.55;3.42;;;23.00;97.30;;;;;;4879205;29;20497;-79
2021/09/01 08:09:21;;;;;;;4.97;2.80;;;23.00;97.50;;;;;;4878447;29;20041;-80
2021/09/01 08:11:47;;;;;;;4.97;2.92;;;23.00;97.30;;;;;;4879095;29;20060;-79
2021/09/01 08:14:12;;;;;;;4.82;2.72;;;23.00;97.30;;;;;;4878825;29;20030;-80
2021/09/01 08:16:38;;;;;;;5.57;2.92;;;23.00;97.30;;;;;;4879036;29;20037;-79
2021/09/01 08:19:04;;;;;;;5.10;2.67;;;23.00;97.40;;;;;;4882854;29;20543;-79
2021/09/01 08:21:29;;;;;;;4.22;2.97;;;23.00;97.40;;;;;;4882170;29;20037;-79
2021/09/01 08:23:55;;;;;;;4.45;2.72;;;23.00;97.40;;;;;;4882176;29;20053;-79
2021/09/01 08:26:21;;;;;;;4.82;3.00;;;23.00;97.40;;;;;;4850168;29;20037;-80
2021/09/01 08:28:47;;;;;;;4.15;2.47;;;23.10;97.50;;;;;;4881986;29;20069;-79
2021/09/01 08:31:12;;;;;;;3.80;2.60;;;23.10;97.50;;;;;;4882287;29;20097;-80
2021/09/01 08:33:38;;;;;;;4.45;2.67;;;23.10;97.40;;;;;;4865431;29;20033;-79
2021/09/01 08:36:04;;;;;;;4.53;2.72;;;23.20;97.40;;;;;;4882061;29;20040;-80
2021/09/01 08:38:30;;;;;;;4.35;2.42;;;23.20;97.30;;;;;;4881864;29;20096;-81
2021/09/01 08:40:56;;;;;;;2.50;1.90;;;23.20;97.30;;;;;;4881996;29;20477;-79
2021/09/01 08:43:21;;;;;;;4.93;2.80;;;23.30;97.20;;;;;;4881672;29;20045;-81
2021/09/01 08:45:47;;;;;;;7.10;2.95;;;23.30;97.20;;;;;;4865494;29;20044;-79
2021/09/01 08:48:15;;;;;;;3.50;2.58;;;23.40;97.20;;;;;;4882468;29;20033;-79
2021/09/01 08:50:41;;;;;;;3.17;2.45;;;23.40;97.10;;;;;;4881894;29;20033;-79
2021/09/01 08:53:07;;;;;;;3.72;2.35;;;23.40;97.10;;;;;;4881818;29;20029;-80
2021/09/01 08:55:33;;;;;;;4.93;2.40;;;23.40;97.00;;;;;;4865216;29;20049;-80
2021/09/01 08:58:00;;;;;;;4.15;2.45;;;23.40;97.00;;;;;;4881997;29;20037;-80
2021/09/01 09:00:25;;;;;;;5.45;2.72;;;23.40;97.00;;;;;;4881635;29;20037;-80
2021/09/01 09:02:55;;;;;;;3.63;2.33;;;23.40;96.90;;;;;;4881993;29;20040;-80
2021/09/01 09:05:47;;;;;;;4.38;2.15;;;23.40;96.90;;;;;;4881819;29;20041;-79
2021/09/01 09:08:14;;;;;;;3.47;2.42;;;23.40;96.90;;;;;;4881880;29;20025;-79
2021/09/01 09:10:45;;;;;;;4.63;2.40;;;23.50;96.90;;;;;;4865099;29;20045;-80
2021/09/01 09:13:14;;;;;;;4.00;2.28;;;23.50;96.90;;;;;;4881819;29;20029;-79
2021/09/01 09:15:42;;;;;;;3.20;2.10;;;23.50;96.90;;;;;;4881186;29;20037;-79
2021/09/01 09:18:30;;;;;;;3.10;1.90;;;23.50;96.90;;;;;;4881684;29;20112;-79
2021/09/01 09:21:18;;;;;;;3.85;2.08;;;23.50;96.90;;;;;;4881583;29;20403;-79
2021/09/01 09:23:46;;;;;;;2.67;1.77;;;23.50;96.90;;;;;;4881259;29;20067;-80
2021/09/01 09:26:25;;;;;;;3.15;2.03;;;23.50;96.80;;;;;;4881274;29;20048;-80
2021/09/01 09:29:11;;;;;;;4.10;2.15;;;23.40;96.80;;;;;;4880521;29;20040;-80
2021/09/01 09:31:40;;;;;;;3.25;2.20;;;23.40;96.90;;;;;;4881167;29;20033;-80
2021/09/01 09:34:17;;;;;;;1.95;1.75;;;23.40;96.90;;;;;;4881106;29;20491;-80
2021/09/01 09:37:00;;;;;;;2.55;1.83;;;23.40;96.90;;;;;;4880831;29;20025;-79
2021/09/01 09:39:57;;;;;;;2.25;1.40;;;23.40;96.80;;;;;;4881285;29;20128;-79
2021/09/01 09:42:33;;;;;;;2.53;1.80;;;23.40;96.80;;;;;;4865798;29;20045;-79
2021/09/01 09:45:18;;;;;;;2.85;1.75;;;23.40;96.80;;;;;;4881172;29;20064;-80
2021/09/01 09:47:48;;;;;;;3.25;2.20;;;23.50;96.80;;;;;;4864436;29;20115;-79
2021/09/01 09:50:14;;;;;;;2.80;1.98;;;23.40;96.80;;;;;;4881043;29;20096;-80
2021/09/01 09:52:39;;;;;;;4.20;2.25;;;23.40;96.80;;;;;;4880757;29;20048;-80
2021/09/01 09:55:12;;;;;;;2.15;1.70;;;23.40;96.90;;;;;;4880955;29;20030;-80
2021/09/01 09:58:00;;;;;;;3.03;1.60;;;23.30;97.00;;;;;;4880767;29;20047;-80
2021/09/01 10:00:27;;;;;;;3.20;1.65;;;23.30;97.30;;;;;;4880993;29;20111;-80
2021/09/01 10:02:53;;;;;;;1.77;1.63;;;23.30;97.10;;;;;;4880576;29;20029;-80
2021/09/01 10:05:20;;;;;;;3.53;2.10;;;23.30;97.20;;;;;;4880815;29;20460;-80
2021/09/01 10:07:47;;;;;;;2.40;1.67;;;23.20;97.20;;;;;;4880297;29;20061;-80
2021/09/01 10:10:13;;;;;;;3.78;2.15;;;23.20;97.20;;;;;;4863946;29;20044;-80
2021/09/01 10:12:41;;;;;;;3.47;1.95;;;23.20;97.20;;;;;;4863639;29;20070;-80
2021/09/01 10:15:11;;;;;;;2.03;1.70;;;23.20;97.20;;;;;;4864141;29;20393;-80
2021/09/01 10:17:40;;;;;;;2.30;1.80;;;23.20;97.30;;;;;;4880332;29;20036;-80
2021/09/01 10:20:13;;;;;;;3.53;1.90;;;23.20;97.30;;;;;;4880394;29;20041;-79
2021/09/01 10:22:39;;;;;;;2.60;1.80;;;23.20;97.30;;;;;;4863522;29;20419;-80
2021/09/01 10:25:05;;;;;;;2.65;1.80;;;23.20;97.30;;;;;;4880451;29;20080;-80
2021/09/01 10:27:31;;;;;;;2.35;1.70;;;23.20;97.30;;;;;;4880079;29;20040;-80
2021/09/01 10:30:07;;;;;;;3.45;2.35;;;23.20;97.30;;;;;;4880132;29;20037;-80
2021/09/01 10:32:47;;;;;;;2.25;1.50;;;23.20;97.30;;;;;;4880274;29;20037;-84
2021/09/01 10:35:15;;;;;;;2.10;1.40;;;23.20;97.30;;;;;;4880457;29;20112;-80
2021/09/01 10:37:50;;;;;;;3.60;2.00;;;23.20;97.40;;;;;;4863417;29;20033;-80
2021/09/01 10:40:21;;;;;;;2.55;1.75;;;23.20;97.40;;;;;;4880161;29;20049;-80
2021/09/01 10:42:57;;;;;;;2.92;1.90;;;23.20;97.40;;;;;;4879903;29;20040;-80
2021/09/01 10:45:31;;;;;;;2.63;1.92;;;23.20;97.40;;;;;;4880171;29;20068;-80
2021/09/01 10:48:03;;;;;;;2.45;2.05;;;23.20;97.40;;;;;;4879698;29;20040;-80
2021/09/01 10:50:30;;;;;;;2.72;2.05;;;23.20;97.50;;;;;;4863450;29;20033;-80
2021/09/01 10:53:03;;;;;;;3.03;1.90;;;23.20;97.50;;;;;;4880087;29;20036;-80
2021/09/01 10:55:30;;;;;;;2.17;1.63;;;23.20;97.50;;;;;;4880096;29;20108;-80
2021/09/01 10:58:18;;;;;;;5.18;1.77;;;23.20;97.50;;;;;;4879778;29;20068;-80
2021/09/01 11:00:49;;;;;;;3.30;1.80;;;23.20;97.50;;;;;;4879647;29;20044;-80
2021/09/01 11:03:25;;;;;;;2.92;1.70;;;23.20;97.50;;;;;;4879922;29;20025;-80
2021/09/01 11:05:50;;;;;;;1.85;1.48;;;23.20;97.50;;;;;;4879455;29;20045;-80
2021/09/01 11:08:16;;;;;;;2.92;1.77;;;23.20;97.50;;;;;;4879823;29;20029;-80
2021/09/01 11:10:55;;;;;;;3.10;1.80;;;23.20;97.60;;;;;;4879809;29;20037;-80
2021/09/01 11:13:21;;;;;;;3.25;1.92;;;23.20;97.60;;;;;;4879914;29;20025;-80
2021/09/01 11:15:46;;;;;;;2.47;1.70;;;23.20;97.50;;;;;;4862733;29;20497;-80
2021/09/01 11:18:12;;;;;;;1.60;1.50;;;23.20;97.50;;;;;;4879583;29;20040;-80
2021/09/01 11:20:53;;;;;;;2.22;1.50;;;23.20;97.50;;;;;;4879614;29;20079;-80
2021/09/01 11:23:25;;;;;;;3.85;1.88;;;23.20;97.60;;;;;;4879125;29;20065;-80
2021/09/01 11:25:50;;;;;;;1.77;1.52;;;23.20;97.60;;;;;;4879341;29;20025;-80
2021/09/01 11:28:16;;;;;;;1.98;1.60;;;23.20;97.60;;;;;;4879250;29;20468;-80
2021/09/01 11:30:42;;;;;;;3.00;1.60;;;23.20;97.60;;;;;;4879200;29;20093;-81
2021/09/01 11:33:14;;;;;;;2.33;1.48;;;23.20;97.60;;;;;;4862833;29;20368;-80
2021/09/01 11:35:39;;;;;;;1.70;1.40;;;23.20;97.60;;;;;;4879526;29;20040;-80
2021/09/01 11:38:08;;;;;;;2.58;1.58;;;23.20;97.60;;;;;;4862676;29;20029;-80
2021/09/01 11:40:40;;;;;;;2.70;1.90;;;23.20;97.60;;;;;;4863084;29;20045;-80
2021/09/01 11:43:14;;;;;;;2.35;1.60;;;23.20;97.60;;;;;;4879238;29;20040;-80
2021/09/01 11:45:51;;;;;;;2.88;1.80;;;23.20;97.60;;;;;;4879374;29;20029;-80
2021/09/01 11:48:17;;;;;;;3.50;2.03;;;23.20;97.60;;;;;;4862593;29;20098;-80
2021/09/01 11:50:44;;;;;;;2.45;1.63;;;23.20;97.60;;;;;;4862286;29;20041;-87
2021/09/01 11:53:14;;;;;;;2.30;1.63;;;23.20;97.60;;;;;;4849873;29;20029;-80
2021/09/01 11:55:40;;;;;;;2.90;1.88;;;23.20;97.60;;;;;;4883102;29;20120;-80
2021/09/01 11:58:20;;;;;;;2.95;1.67;;;23.30;97.80;;;;;;4882598;29;20073;-80
2021/09/01 12:00:48;;;;;;;2.20;1.40;;;23.20;97.60;;;;;;4882469;29;20576;-80
2021/09/01 12:03:15;;;;;;;3.08;1.83;;;23.30;97.60;;;;;;4882988;29;20033;-80
2021/09/01 12:05:41;;;;;;;2.30;1.70;;;23.30;97.60;;;;;;4866059;29;20108;-80
2021/09/01 12:08:20;;;;;;;1.98;1.63;;;23.30;97.60;;;;;;4882383;29;20388;-80
2021/09/01 12:10:48;;;;;;;1.95;1.50;;;23.20;97.60;;;;;;4882566;29;20037;-81
2021/09/01 12:13:13;;;;;;;2.92;1.80;;;23.30;97.60;;;;;;4882678;29;20033;-78
2021/09/01 12:15:54;;;;;;;3.13;1.65;;;23.30;97.60;;;;;;4882685;29;20369;-78
2021/09/01 12:18:19;;;;;;;2.17;1.73;;;23.30;97.60;;;;;;4882705;29;20029;-78
2021/09/01 12:20:55;;;;;;;2.85;1.70;;;23.30;97.60;;;;;;4882609;29;20033;-78
2021/09/01 12:23:20;;;;;;;2.45;1.60;;;23.30;97.60;;;;;;4882670;29;20056;-78
2021/09/01 12:25:46;;;;;;;2.08;1.63;;;23.30;97.60;;;;;;4882591;29;20033;-78
2021/09/01 12:28:14;;;;;;;2.85;1.88;;;23.30;97.50;;;;;;4882501;29;20049;-79
2021/09/01 12:30:51;;;;;;;2.40;1.70;;;23.30;97.50;;;;;;4882529;29;20040;-78
2021/09/01 12:33:18;;;;;;;2.78;1.70;;;23.30;97.50;;;;;;4882196;29;20033;-79
2021/09/01 12:35:56;;;;;;;2.40;1.70;;;23.30;97.50;;;;;;4882373;29;20025;-78
2021/09/01 12:38:23;;;;;;;3.00;1.92;;;23.30;97.50;;;;;;4882410;29;20025;-78
2021/09/01 12:40:48;;;;;;;3.05;1.73;;;23.30;97.40;;;;;;4881999;29;20044;-87
2021/09/01 12:43:14;;;;;;;2.22;1.67;;;23.30;97.40;;;;;;4850188;29;20037;-78
2021/09/01 12:45:42;;;;;;;1.80;1.52;;;23.30;97.40;;;;;;4865343;29;20057;-78
2021/09/01 12:48:16;;;;;;;3.15;1.90;;;23.30;97.40;;;;;;4881972;29;20033;-79
2021/09/01 12:50:45;;;;;;;2.42;1.70;;;23.30;97.40;;;;;;4882213;29;20036;-79